Tiempo atmosférico en la estación meteorológica de Atzeneta Del Maestrat, Castelló/Castellón (420 m.)



Fecha
DESCASC
Temp. máxima en grados centígrados (hora)
DESCASC
Temp. mínima en grados centígrados (hora)
DESCASC
Temp. media en grados centígrados
DESCASC
Racha de viento máxima en m/sg (hora)
DESCASC
Velocidad máxima media en intervalos de 10 minutos(hora)
DESCASC
Precipitaciones diarias en mm
DESCASC
Precipitaciones de 00:00 a 06:00 en mm
DESCASC
Precipitaciones de 06:00 a 12:00 en mm
DESCASC
Precipitaciones de 12:00 a 18:00 en mm
DESCASC
Precipitaciones de 18:00 a 24:00 en mm
DESCASC
17-08-2018 30 (14:10) 18.7 (03:10) 24.4 8.06 (16:40) 5.83 (16:40) 0 0 0 0 0
16-08-2018 29.6 (16:20) 19.9 (10:00) 24.8 9.44 (09:10) 4.44 (07:20) 4.4 0 4.4 0 0
15-08-2018 29 (13:30) 16.4 (07:10) 22.7 7.78 (14:50) 4.72 (13:20) 0 0 0 0 0
14-08-2018 30.6 (15:50) 20.3 (06:50) 25.4 7.78 (14:40) 5 (14:20) 0 0 0 0 0
13-08-2018 30.9 (16:30) 17.7 (05:40) 24.3 6.11 (17:10) 3.89 (14:20) 2.2 2 0 0 0.2
12-08-2018 32.4 (14:00) 18.2 (00:00) 25.3 15.83 (22:40) 9.44 (19:00) 12.6 0 0 0 12.6
11-08-2018 31.1 (12:40) 18.6 (00:00) 24.9 9.17 (13:10) 5.83 (15:40) 0 0 0 0 0
10-08-2018 27.3 (17:10) 20.6 (00:00) 23.9 6.67 (04:10) 3.61 (04:10) 0 0 0 0 0
09-08-2018 33.6 (16:10) 18.7 (00:00) 26.1 10.56 (15:10) 6.39 (15:00) 0.2 0.2 0 0 0
08-08-2018 32.4 (14:40) 19.9 (00:00) 26.2 9.17 (13:50) 5.83 (15:20) 2 0 0 0 2
07-08-2018 33.3 (15:10) 18.5 (00:00) 25.9 16.94 (19:30) 10.83 (20:00) 0.8 0 0 0.8 0
06-08-2018 36.2 (14:50) 20.2 (00:00) 28.2 8.06 (14:20) 4.72 (15:00) 0 0 0 0 0
05-08-2018 37 (13:00) 19.7 (00:00) 28.4 10.28 (13:30) 6.67 (13:30) 0 0 0 0 0
04-08-2018 36.8 (15:30) 19.9 (07:10) 28.3 9.72 (15:50) 5.28 (15:10) 0 0 0 0 0
03-08-2018 35.8 (13:30) 18.9 (00:00) 27.3 9.44 (13:50) 5.28 (14:40) 0 0 0 0 0
02-08-2018 36.9 (14:40) 17.3 (00:00) 27.1 8.61 (15:00) 5.28 (16:00) 0 0 0 0 0
01-08-2018 34.7 (15:20) 18.2 (07:20) 26.5 7.78 (14:50) 4.72 (15:50) 0 0 0 0 0
31-07-2018 34.3 (15:20) 17.6 (00:00) 25.9 8.61 (16:10) 4.44 (16:30) 0 0 0 0 0
30-07-2018 33.6 (15:40) 18.6 (00:00) 26.1 8.89 (15:50) 4.72 (16:00) 0 0 0 0 0
29-07-2018 32.9 (16:20) 17.1 (00:00) 25 9.17 (14:30) 5 (14:30) 0 0 0 0 0
28-07-2018 33.9 (15:00) 16 (00:00) 25 8.61 (15:00) 5.28 (19:00) 0 0 0 0 0
27-07-2018 34.7 (16:00) 16.9 (00:00) 25.8 8.06 (14:30) 5 (19:20) 0 0 0 0 0
26-07-2018 34.4 (14:50) 21.2 (00:00) 27.8 8.06 (15:50) 5 (15:20) 0 0 0 0 0
25-07-2018 31.8 (16:30) 18.6 (00:00) 25.2 7.5 (16:20) 4.72 (19:00) 0 0 0 0 0
24-07-2018 32.3 (15:40) 17.2 (00:00) 24.8 7.5 (14:00) 4.17 (14:10) 0 0 0 0 0
23-07-2018 30.7 (14:50) 16 (00:00) 23.4 8.06 (15:00) 5.28 (15:00) 0 0 0 0 0
22-07-2018 25.3 (18:40) 15 (00:00) 20.1 15.28 (07:10) 7.5 (07:10) 28.2 8.6 16.4 3.2 0
21-07-2018 30.7 (12:50) 19.8 (00:00) 25.3 9.17 (13:20) 5.28 (13:20) 12.4 0 0 0 12.4
20-07-2018 32.5 (14:20) 16.1 (00:00) 24.3 10.28 (14:50) 6.39 (14:50) 0 0 0 0 0

Gráficas

Temp. máximas Temp. mínimas Temp. medias Precipitaciones Rachas de viento máximas Velocidades máximas media en intervalos de 10 minutos

Datos horarios

Fecha y hora oficial Temperatura (ºC) Velocidad del viento (km/h) Dirección del viento Racha (km/h) Dirección de racha Precipitación (mm) Presión (hPa) Tendencia (hPa) Humedad (%)
2018-08-18 23:00:00 19.3 3 Oeste 6 Noroeste 0 -- -- 76
2018-08-18 22:00:00 20.6 5 Noroeste 9 Noroeste 0 -- -- 72
2018-08-18 21:00:00 21.9 5 Sudoeste 15 Sur 0 -- -- 68
2018-08-18 20:00:00 23.6 9 Sur 18 Sur 0 -- -- 62
2018-08-18 19:00:00 23.7 12 Sur 21 Sur 0 -- -- 61
2018-08-18 18:00:00 24.3 12 Sur 21 Sur 0 -- -- 56
2018-08-18 17:00:00 26.3 15 Sur 26 Sudeste 0 -- -- 49
2018-08-18 16:00:00 26.7 13 Sur 25 Sudoeste 0 -- -- 50
2018-08-18 15:00:00 27.5 17 Sur 26 Sudoeste 0 -- -- 46
2018-08-18 14:00:00 27.6 12 Sudeste 27 Sur 0 -- -- 44
2018-08-18 13:00:00 26.6 5 Sudeste 15 Sudeste 0 -- -- 45
2018-08-18 12:00:00 24.7 6 Nordeste 17 Nordeste 0 -- -- 47
2018-08-18 11:00:00 22.6 9 Este 22 Nordeste 0 -- -- 50
2018-08-18 10:00:00 20.9 10 Nordeste 25 Nordeste 0 -- -- 51
2018-08-18 09:00:00 20.1 5 Nordeste 13 Noroeste 0 -- -- 53
2018-08-18 08:00:00 18.3 6 Nordeste 17 Nordeste 0 -- -- 57
2018-08-18 07:00:00 18 11 Nordeste 30 Nordeste 0 -- -- 58
2018-08-18 06:00:00 18.5 12 Nordeste 26 Nordeste 0 -- -- 57
2018-08-18 05:00:00 19.2 9 Nordeste 23 Nordeste 0 -- -- 57
2018-08-18 04:00:00 19.3 8 Nordeste 20 Norte 0 -- -- 58
2018-08-18 03:00:00 19.6 13 Norte 27 Norte 0 -- -- 59
2018-08-18 02:00:00 20.2 10 Norte 21 Norte 0 -- -- 60
2018-08-18 01:00:00 19 4 Oeste 17 Nordeste 0 -- -- 84
2018-08-18 00:00:00 20.4 8 Nordeste 17 Nordeste 0 -- -- 80
2018-08-17 23:00:00 21.6 8 Norte 15 Nordeste 0 -- -- 76
2018-08-17 22:00:00 21.9 5 Sudoeste 13 Sudeste 0 -- -- 72
2018-08-17 21:00:00 22.9 0 Calma 21 Sudeste 0 -- -- 72
2018-08-17 20:00:00 23.9 11 Sur 19 Sur 0 -- -- 72
2018-08-17 19:00:00 24.8 11 Sur 23 Sudoeste 0 -- -- 67
2018-08-17 18:00:00 27.1 16 Sur 24 Sudeste 0 -- -- 60
2018-08-17 17:00:00 27 16 Sur 29 Sudoeste 0 -- -- 62
2018-08-17 16:00:00 26.6 16 Sudoeste 27 Sur 0 -- -- 61
2018-08-17 15:00:00 28 15 Sur 28 Sur 0 -- -- 56
2018-08-17 14:00:00 29.5 9 Sudeste 24 Sur 0 -- -- 46
2018-08-17 13:00:00 28.7 8 Este 18 Norte 0 -- -- 45
2018-08-17 12:00:00 27.1 9 Este 20 Nordeste 0 -- -- 48
2018-08-17 11:00:00 25.3 13 Nordeste 22 Nordeste 0 -- -- 55
2018-08-17 10:00:00 23.2 9 Nordeste 21 Nordeste 0 -- -- 64
2018-08-17 09:00:00 20.7 5 Este 9 Nordeste 0 -- -- 73
2018-08-17 08:00:00 19.1 3 Nordeste 7 Este 0 -- -- 80
2018-08-17 07:00:00 18.8 0 Calma 8 Oeste 0 -- -- 83
2018-08-17 06:00:00 18.9 4 Sudoeste 6 Oeste 0 -- -- 82
2018-08-17 05:00:00 18.9 3 Noroeste 5 Este 0 -- -- 81
2018-08-17 04:00:00 18.9 3 Este 5 Sudoeste 0 -- -- 85
2018-08-17 03:00:00 18.8 0 Calma 7 Norte 0 -- -- 84
2018-08-17 02:00:00 19.2 6 Noroeste 9 Noroeste 0 -- -- 78
2018-08-17 01:00:00 19.4 7 Oeste 12 Norte 0 -- -- 80
2018-08-17 00:00:00 20.1 2 Nordeste 7 Noroeste 0 -- -- 77
2018-08-16 23:00:00 21.4 3 Norte 8 Noroeste 0 -- -- 72
2018-08-16 22:00:00 22.9 5 Norte 8 Norte 0 -- -- 81
2018-08-16 21:00:00 24.1 4 Sudoeste 13 Sur 0 -- -- 74
2018-08-16 20:00:00 25.6 9 Sudoeste 19 Sur 0 -- -- 67
2018-08-16 19:00:00 27.6 11 Sudeste 19 Sudeste 0 -- -- 62
2018-08-16 18:00:00 28.5 7 Sur 18 Sudeste 0 -- -- 58
2018-08-16 17:00:00 28.9 13 Sur 21 Sudeste 0 -- -- 61
2018-08-16 16:00:00 29.1 7 Sudeste 22 Sudeste 0 -- -- 57
2018-08-16 15:00:00 28.1 6 Oeste 11 Oeste 0 -- -- 62
2018-08-16 14:00:00 25.4 0 Calma 8 Oeste 0 -- -- 73
2018-08-16 13:00:00 24 2 Sur 10 Sudeste 0 -- -- 79
2018-08-16 12:00:00 22 4 Oeste 12 Sur 0.2 -- -- 93
2018-08-16 11:00:00 20.5 4 Noroeste 18 Este 0 -- -- 95
2018-08-16 10:00:00 19.9 9 Este 34 Sudeste 0.4 -- -- 93
2018-08-16 09:00:00 20.4 16 Noroeste 26 Noroeste 3 -- -- 89
2018-08-16 08:00:00 20.6 5 Sudoeste 32 Sur 0.8 -- -- 92
2018-08-16 07:00:00 21.5 10 Sur 22 Sur 0 -- -- 88
2018-08-16 06:00:00 21.9 2 Nordeste 5 Norte 0 -- -- 92
2018-08-16 05:00:00 22 3 Nordeste 4 Norte 0 -- -- 92
2018-08-16 04:00:00 22 0 Calma 8 Norte 0 -- -- 91
2018-08-16 03:00:00 21.7 2 Norte 5 Noroeste 0 -- -- 90
2018-08-16 02:00:00 22.4 0 Calma 11 Sudoeste 0 -- -- 87
2018-08-16 01:00:00 22.8 3 Sudoeste 10 Sudoeste 0 -- -- 86
2018-08-16 00:00:00 23.1 5 Sur 15 Sur 0 -- -- 85
2018-08-15 23:00:00 23.3 9 Sur 14 Sur 0 -- -- 85
2018-08-15 22:00:00 23.6 9 Sudoeste 18 Sudoeste 0 -- -- 82
2018-08-15 21:00:00 24 12 Sudoeste 19 Sudoeste 0 -- -- 79
2018-08-15 20:00:00 24.7 12 Sudoeste 19 Sudoeste 0 -- -- 75
2018-08-15 19:00:00 25.6 10 Sur 18 Sur 0 -- -- 70
2018-08-15 18:00:00 26.2 8 Sudoeste 24 Este 0 -- -- 67
2018-08-15 17:00:00 25.8 14 Sudeste 27 Sudeste 0 -- -- 67
2018-08-15 16:00:00 26.9 11 Sudeste 24 Sudeste 0 -- -- 61
2018-08-15 15:00:00 28.2 16 Sur 28 Sur 0 -- -- 58
2018-08-15 14:00:00 28 13 Sur 27 Sur 0 -- -- 57
2018-08-15 13:00:00 27.4 13 Sur 27 Sudeste 0 -- -- 58
2018-08-15 12:00:00 25.8 16 Sur 27 Sur 0 -- -- 61
2018-08-15 11:00:00 25.3 5 Sudeste 10 Sur 0 -- -- 62
2018-08-15 10:00:00 20.8 0 Calma 4 Oeste 0 -- -- 76
2018-08-15 09:00:00 18.8 0 Calma 4 Sur 0 -- -- 84
2018-08-15 08:00:00 16.9 0 Calma 3 Norte 0 -- -- 92
2018-08-15 07:00:00 16.5 0 Calma 4 Oeste 0 -- -- 91
2018-08-15 06:00:00 16.9 4 Oeste 5 Oeste 0 -- -- 90
2018-08-15 05:00:00 17.5 0 Calma 4 Sur 0 -- -- 90
2018-08-15 04:00:00 17.8 3 Noroeste 5 Noroeste 0 -- -- 89
2018-08-15 03:00:00 18.5 4 Noroeste 9 Norte 0 -- -- 85
2018-08-15 02:00:00 19.1 4 Norte 8 Norte 0 -- -- 82
2018-08-15 01:00:00 20 0 Calma 7 Noroeste 0 -- -- 86
2018-08-15 00:00:00 20.9 5 Noroeste 8 Noroeste 0 -- -- 86
2018-08-14 23:00:00 22 4 Noroeste 8 Noroeste 0 -- -- 81
2018-08-14 22:00:00 23.3 3 Norte 9 Sur 0 -- -- 79
2018-08-14 21:00:00 24.7 2 Este 12 Sudeste 0 -- -- 73
2018-08-14 20:00:00 26.1 6 Sudeste 21 Sudeste 0 -- -- 65
2018-08-14 19:00:00 26.4 9 Sudeste 22 Sudeste 0 -- -- 60
2018-08-14 18:00:00 27.2 12 Sudeste 27 Sudeste 0 -- -- 56
2018-08-14 17:00:00 28.7 14 Sudeste 27 Sudeste 0 -- -- 50
2018-08-14 16:00:00 30.4 11 Sudeste 27 Sudeste 0 -- -- 44
2018-08-14 15:00:00 28.7 12 Sudeste 28 Sudeste 0 -- -- 50
2018-08-14 14:00:00 29.8 8 Este 20 Sudeste 0 -- -- 43
2018-08-14 13:00:00 28.6 4 Nordeste 15 Este 0 -- -- 47
2018-08-14 12:00:00 27.1 10 Este 17 Nordeste 0 -- -- 50
2018-08-14 11:00:00 25.3 10 Nordeste 18 Norte 0 -- -- 55
2018-08-14 10:00:00 24.3 6 Nordeste 16 Norte 0 -- -- 57
2018-08-14 09:00:00 22.5 9 Nordeste 20 Nordeste 0 -- -- 60
2018-08-14 08:00:00 20.8 6 Nordeste 22 Nordeste 0 -- -- 65
2018-08-14 07:00:00 20.4 8 Nordeste 25 Nordeste 0 -- -- 67
2018-08-14 06:00:00 20.7 9 Nordeste 19 Nordeste 0 -- -- 65
2018-08-14 05:00:00 21.1 10 Nordeste 22 Nordeste 0 -- -- 64
2018-08-14 04:00:00 21.9 7 Nordeste 21 Norte 0 -- -- 62
2018-08-14 03:00:00 22 4 Nordeste 13 Nordeste 0 -- -- 68
2018-08-14 02:00:00 21.5 4 Sudeste 14 Norte 0 -- -- 79
2018-08-14 01:00:00 21.4 2 Norte 10 Norte 0 -- -- 90
2018-08-14 00:00:00 22.4 3 Norte 5 Norte 0 -- -- 89
2018-08-13 23:00:00 23.3 0 Calma 9 Norte 0 -- -- 87
2018-08-13 22:00:00 24.2 3 Norte 8 Noroeste 0 -- -- 85
2018-08-13 21:00:00 25.4 3 Sudeste 14 Sudeste 0 -- -- 81
2018-08-13 20:00:00 27.3 4 Oeste 9 Sudoeste 0 -- -- 73
2018-08-13 19:00:00 26.3 6 Sur 14 Sudeste 0.2 -- -- 77
2018-08-13 18:00:00 27.8 10 Sudeste 22 Sudeste 0 -- -- 62
2018-08-13 17:00:00 30.8 8 Sudeste 21 Sudeste 0 -- -- 55
2018-08-13 16:00:00 29.7 5 Oeste 15 Sudeste 0 -- -- 62
2018-08-13 15:00:00 28 8 Sudeste 20 Sudeste 0 -- -- 70
2018-08-13 14:00:00 27.5 10 Sudeste 20 Sudeste 0 -- -- 65
2018-08-13 13:00:00 30.8 8 Sur 17 Sudeste 0 -- -- 54
2018-08-13 12:00:00 27.9 4 Nordeste 9 Sudeste 0 -- -- 59
2018-08-13 11:00:00 26.4 3 Este 6 Nordeste 0 -- -- 63
2018-08-13 10:00:00 23.5 2 Sur 5 Sudoeste 0 -- -- 78
2018-08-13 09:00:00 20.3 0 Calma 7 Nordeste 0 -- -- 90
2018-08-13 08:00:00 18 4 Nordeste 9 Nordeste 0 -- -- 96
2018-08-13 07:00:00 17.7 0 Calma 7 Noroeste 0 -- -- 96
2018-08-13 06:00:00 17.7 2 Oeste 5 Noroeste 0 -- -- 96
2018-08-13 05:00:00 17.9 0 Calma 5 Sudeste 0 -- -- 96
2018-08-13 04:00:00 18 0 Calma 9 Norte 0 -- -- 95
2018-08-13 03:00:00 18.2 4 Sudoeste 14 Oeste 0.2 -- -- 95
2018-08-13 02:00:00 18.3 3 Sudeste 10 Norte 0.6 -- -- 94
2018-08-13 01:00:00 18.2 9 Noroeste 16 Noroeste 1.2 -- -- 93
2018-08-13 00:00:00 18.3 3 Sudoeste 26 Oeste 2.8 -- -- 91
2018-08-12 23:00:00 18.9 29 Oeste 57 Oeste 5.4 -- -- 84
2018-08-12 22:00:00 20.5 5 Sudeste 17 Noroeste 0 -- -- 83
2018-08-12 21:00:00 20.9 5 Este 9 Este 0 -- -- 79
2018-08-12 20:00:00 21.4 6 Nordeste 41 Norte 0 -- -- 71
2018-08-12 19:00:00 20.1 34 Norte 54 Norte 4.4 -- -- 81
2018-08-12 18:00:00 26.1 8 Sudoeste 21 Sur 0 -- -- 68
2018-08-12 17:00:00 27.4 15 Sudoeste 25 Sudoeste 0 -- -- 63
2018-08-12 16:00:00 29.9 13 Sudoeste 33 Sur 0 -- -- 52
2018-08-12 15:00:00 32 15 Sudoeste 37 Sur 0 -- -- 50
2018-08-12 14:00:00 32.4 17 Sur 30 Sur 0 -- -- 50
2018-08-12 13:00:00 31.8 17 Sur 30 Sudeste 0 -- -- 52
2018-08-12 12:00:00 30 18 Sudeste 27 Sur 0 -- -- 57
2018-08-12 11:00:00 28.8 12 Sur 19 Sudeste 0 -- -- 62
2018-08-12 10:00:00 25.3 4 Este 10 Sudeste 0 -- -- 73
2018-08-12 09:00:00 22.5 2 Sudeste 5 Sur 0 -- -- 81
2018-08-12 08:00:00 19.1 0 Calma 4 Oeste 0 -- -- 93
2018-08-12 07:00:00 18.5 0 Calma 4 Sudoeste 0 -- -- 91
2018-08-12 06:00:00 19.1 0 Calma 5 Noroeste 0 -- -- 90
2018-08-12 05:00:00 19.4 4 Oeste 6 Oeste 0 -- -- 89
2018-08-12 04:00:00 20 3 Noroeste 4 Noroeste 0 -- -- 88
2018-08-12 03:00:00 20.6 0 Calma 6 Noroeste 0 -- -- 86
2018-08-12 02:00:00 21.2 0 Calma 13 Noroeste 0 -- -- 85
2018-08-12 01:00:00 21.8 7 Norte 10 Noroeste 0 -- -- 83
2018-08-12 00:00:00 23.1 4 Norte 7 Sur 0 -- -- 82
2018-08-11 23:00:00 23.8 5 Sudoeste 15 Sur 0 -- -- 80
2018-08-11 22:00:00 24.3 5 Sudoeste 12 Sudoeste 0 -- -- 76
2018-08-11 21:00:00 25 6 Sudoeste 18 Sur 0 -- -- 73
2018-08-11 20:00:00 25.8 11 Sur 17 Sur 0 -- -- 69
2018-08-11 19:00:00 26.6 10 Sur 23 Sur 0 -- -- 68
2018-08-11 18:00:00 27.6 12 Sur 27 Sur 0 -- -- 67
2018-08-11 17:00:00 29.5 15 Sur 32 Sudeste 0 -- -- 60
2018-08-11 16:00:00 29.8 17 Sur 33 Sudeste 0 -- -- 58
2018-08-11 15:00:00 30.4 17 Sudeste 29 Sudeste 0 -- -- 56
2018-08-11 14:00:00 29.9 14 Sudeste 33 Sudeste 0 -- -- 57
2018-08-11 13:00:00 31 19 Sudeste 30 Sudeste 0 -- -- 54
2018-08-11 12:00:00 29.9 14 Sudeste 26 Sur 0 -- -- 57
2018-08-11 11:00:00 27.2 4 Este 15 Sur 0 -- -- 65
2018-08-11 10:00:00 23.7 6 Sudeste 10 Sudeste 0 -- -- 78
2018-08-11 09:00:00 21.1 0 Calma 6 Sudoeste 0 -- -- 86
2018-08-11 08:00:00 18.9 3 Sudoeste 5 Oeste 0 -- -- 92
2018-08-11 07:00:00 18.6 3 Noroeste 8 Sur 0 -- -- 91
2018-08-11 06:00:00 18.9 5 Noroeste 7 Noroeste 0 -- -- 90
2018-08-11 05:00:00 19.7 0 Calma 8 Noroeste 0 -- -- 87
2018-08-11 04:00:00 19.5 6 Noroeste 8 Norte 0 -- -- 88
2018-08-11 03:00:00 20.1 5 Norte 8 Norte 0 -- -- 86
2018-08-11 02:00:00 21.4 0 Calma 3 Este 0 -- -- 81
2018-08-11 01:00:00 22.5 3 Noroeste 6 Sudoeste 0 -- -- 80
2018-08-11 00:00:00 22.5 5 Sur 9 Sur 0 -- -- 80
2018-08-10 23:00:00 22.8 0 Calma 4 Sudeste 0 -- -- 78
2018-08-10 22:00:00 22.8 2 Sur 18 Sudeste 0 -- -- 78
2018-08-10 21:00:00 23.2 10 Sudeste 17 Sudeste 0 -- -- 76
2018-08-10 20:00:00 24.5 11 Sudeste 24 Sur 0 -- -- 70
2018-08-10 19:00:00 25.9 11 Sudeste 19 Sudeste 0 -- -- 62
2018-08-10 18:00:00 26.7 9 Sudeste 23 Sudeste 0 -- -- 60
2018-08-10 17:00:00 26.6 9 Sudeste 18 Sudeste 0 -- -- 60
2018-08-10 16:00:00 25.2 6 Este 13 Nordeste 0 -- -- 64
2018-08-10 15:00:00 24.3 3 Nordeste 13 Este 0 -- -- 67
2018-08-10 14:00:00 24 3 Sudeste 12 Sudeste 0 -- -- 67
2018-08-10 13:00:00 24 8 Este 13 Este 0 -- -- 66
2018-08-10 12:00:00 24.2 5 Nordeste 14 Nordeste 0 -- -- 65
2018-08-10 11:00:00 23 4 Nordeste 11 Norte 0 -- -- 68
2018-08-10 10:00:00 23.5 6 Norte 12 Nordeste 0 -- -- 62
2018-08-10 09:00:00 22.3 6 Nordeste 16 Norte 0 -- -- 62
2018-08-10 08:00:00 21 5 Norte 13 Norte 0 -- -- 57
2018-08-10 07:00:00 20.6 6 Norte 12 Nordeste 0 -- -- 56
2018-08-10 06:00:00 21.1 8 Norte 18 Norte 0 -- -- 53
2018-08-10 05:00:00 21.5 6 Nordeste 24 Norte 0 -- -- 51
2018-08-10 04:00:00 21.5 11 Norte 20 Norte 0 -- -- 51
2018-08-10 03:00:00 21.9 5 Nordeste 22 Norte 0 -- -- 54
2018-08-10 02:00:00 21.9 9 Nordeste 18 Nordeste 0 -- -- 54
2018-08-10 01:00:00 21.5 6 Nordeste 20 Norte 0 -- -- 58
2018-08-10 00:00:00 22.4 8 Nordeste 17 Norte 0 -- -- 57
2018-08-09 23:00:00 22.4 7 Nordeste 14 Norte 0 -- -- 66
2018-08-09 22:00:00 22.9 0 Calma 8 Este 0 -- -- 70
2018-08-09 21:00:00 24.3 5 Nordeste 14 Norte 0 -- -- 64
2018-08-09 20:00:00 24.9 12 Nordeste 24 Nordeste 0 -- -- 58
2018-08-09 19:00:00 25.1 9 Nordeste 28 Nordeste 0 -- -- 56
2018-08-09 18:00:00 23.6 19 Nordeste 35 Este 0 -- -- 65
2018-08-09 17:00:00 27.2 21 Nordeste 37 Nordeste 0 -- -- 57
2018-08-09 16:00:00 33.5 16 Sur 38 Sudeste 0 -- -- 50
2018-08-09 15:00:00 32.8 23 Sur 35 Sudeste 0 -- -- 53
2018-08-09 14:00:00 33.4 20 Sur 32 Sur 0 -- -- 50
2018-08-09 13:00:00 32.4 13 Sudeste 25 Sudeste 0 -- -- 46
2018-08-09 12:00:00 29.8 7 Sudeste 15 Sur 0 -- -- 57
2018-08-09 11:00:00 27.3 4 Este 8 Sudeste 0 -- -- 67
2018-08-09 10:00:00 24.5 2 Norte 6 Sur 0 -- -- 74
2018-08-09 09:00:00 21.7 0 Calma 5 Sudeste 0 -- -- 85
2018-08-09 08:00:00 19.2 2 Norte 6 Oeste 0 -- -- 95
2018-08-09 07:00:00 19 4 Norte 9 Oeste 0 -- -- 93
2018-08-09 06:00:00 19.2 5 Oeste 9 Oeste 0 -- -- 94
2018-08-09 05:00:00 19.5 5 Norte 8 Norte 0 -- -- 94
2018-08-09 04:00:00 19.1 0 Calma 6 Nordeste 0 -- -- 94
2018-08-09 03:00:00 19.1 4 Noroeste 8 Sudoeste 0 -- -- 94
2018-08-09 02:00:00 19.6 0 Calma 5 Norte 0 -- -- 93
2018-08-09 01:00:00 19.6 0 Calma 8 Noroeste 0.2 -- -- 92
2018-08-09 00:00:00 19.9 3 Sudeste 13 Norte 0 -- -- 92
2018-08-08 23:00:00 20.5 6 Noroeste 13 Sur 0 -- -- 91
2018-08-08 22:00:00 21.3 2 Sur 8 Norte 0 -- -- 89
2018-08-08 21:00:00 21.6 4 Norte 24 Oeste 2 -- -- 85
2018-08-08 20:00:00 26 16 Sur 25 Sur 0 -- -- 64
2018-08-08 19:00:00 27.4 16 Sur 27 Sur 0 -- -- 64
2018-08-08 18:00:00 30.3 18 Sudoeste 28 Sudoeste 0 -- -- 56
2018-08-08 17:00:00 31.2 16 Sudoeste 32 Sudeste 0 -- -- 54
2018-08-08 16:00:00 30.2 17 Sur 31 Sudeste 0 -- -- 59
2018-08-08 15:00:00 31.4 17 Sudeste 32 Sur 0 -- -- 54
2018-08-08 14:00:00 31.4 15 Sudeste 33 Sudeste 0 -- -- 52
2018-08-08 13:00:00 30.9 16 Sur 24 Sudoeste 0 -- -- 53
2018-08-08 12:00:00 29.5 9 Sur 29 Sudeste 0 -- -- 56
2018-08-08 11:00:00 27.8 6 Sur 13 Este 0 -- -- 60
2018-08-08 10:00:00 25.4 0 Calma 5 Este 0 -- -- 71
2018-08-08 09:00:00 23.2 3 Sudeste 4 Sudeste 0 -- -- 72
2018-08-08 08:00:00 20.4 2 Norte 4 Noroeste 0 -- -- 84
2018-08-08 07:00:00 20.3 0 Calma 5 Sudeste 0 -- -- 84
2018-08-08 06:00:00 21.6 3 Noroeste 5 Norte 0 -- -- 81
2018-08-08 05:00:00 22.1 3 Norte 4 Norte 0 -- -- 79
2018-08-08 04:00:00 22.1 3 Noroeste 8 Noroeste 0 -- -- 78
2018-08-08 03:00:00 22.1 2 Sudoeste 13 Norte 0 -- -- 74
2018-08-08 02:00:00 23 10 Noroeste 17 Noroeste 0 -- -- 67
2018-08-08 01:00:00 24.6 9 Nordeste 31 Nordeste 0 -- -- 77
2018-08-08 00:00:00 25.5 12 Nordeste 21 Nordeste 0 -- -- 69
2018-08-07 23:00:00 26.7 5 Este 33 Sudoeste 0 -- -- 42
2018-08-07 22:00:00 26.3 18 Sudoeste 49 Oeste 0 -- -- 43
2018-08-07 21:00:00 27 30 Sudoeste 46 Oeste 0 -- -- 41
2018-08-07 20:00:00 -- 39 Noroeste 61 Oeste 0 -- -- --
2018-08-07 19:00:00 27.4 20 Noroeste 40 Noroeste 0 -- -- 39
2018-08-07 18:00:00 24.2 12 Noroeste 32 Norte 0.6 -- -- 49
2018-08-07 17:00:00 27.9 12 Noroeste 37 Nordeste 0.2 -- -- 53
2018-08-07 16:00:00 31.2 15 Sudeste 26 Sudeste 0 -- -- 59
2018-08-07 15:00:00 32.9 13 Sudeste 26 Sudeste 0 -- -- 52
2018-08-07 14:00:00 32.6 15 Sudeste 26 Sudeste 0 -- -- 53
2018-08-07 13:00:00 32.3 13 Sudeste 26 Sudeste 0 -- -- 54
2018-08-07 12:00:00 30.7 7 Sudeste 17 Este 0 -- -- 57
2018-08-07 11:00:00 29.4 5 Sudeste 13 Sur 0 -- -- 62
2018-08-07 10:00:00 27.6 3 Sudeste 6 Sudeste 0 -- -- 55
2018-08-07 09:00:00 23.8 0 Calma 4 Sudoeste 0 -- -- 61
2018-08-07 08:00:00 19.7 0 Calma 4 Sur 0 -- -- 76
2018-08-07 07:00:00 18.7 0 Calma 8 Noroeste 0 -- -- 77
2018-08-07 06:00:00 19 2 Sudoeste 4 Oeste 0 -- -- 75
2018-08-07 05:00:00 19.4 2 Norte 3 Este 0 -- -- 72
2018-08-07 04:00:00 20 4 Oeste 6 Oeste 0 -- -- 72
2018-08-07 03:00:00 20.9 2 Sudoeste 5 Norte 0 -- -- 69
2018-08-07 02:00:00 21.6 2 Oeste 5 Norte 0 -- -- 68
2018-08-07 01:00:00 22.7 0 Calma 4 Norte 0 -- -- 64
2018-08-07 00:00:00 23.9 0 Calma 5 Noroeste 0 -- -- 64
2018-08-06 23:00:00 25.2 2 Noroeste 6 Noroeste 0 -- -- 61
2018-08-06 22:00:00 26.8 6 Noroeste 10 Norte 0 -- -- 58
2018-08-06 21:00:00 28.7 6 Sudoeste 17 Sudoeste 0 -- -- 56
2018-08-06 20:00:00 30.6 12 Sudoeste 21 Sur 0 -- -- 49
2018-08-06 19:00:00 31.8 12 Sur 24 Sur 0 -- -- 42
2018-08-06 18:00:00 32.9 13 Sur 22 Sur 0 -- -- 44
2018-08-06 17:00:00 31.5 13 Sur 22 Sudoeste 0 -- -- 51
2018-08-06 16:00:00 32 15 Sudoeste 25 Sudoeste 0 -- -- 47
2018-08-06 15:00:00 36.1 17 Sur 29 Sur 0 -- -- 35
2018-08-06 14:00:00 35.7 13 Sudoeste 27 Sur 0 -- -- 39
2018-08-06 13:00:00 35.1 13 Sudeste 26 Sur 0 -- -- 37
2018-08-06 12:00:00 34.2 15 Sur 26 Sur 0 -- -- 38
2018-08-06 11:00:00 32.4 12 Sudeste 22 Sur 0 -- -- 42
2018-08-06 10:00:00 28.8 4 Este 7 Este 0 -- -- 50
2018-08-06 09:00:00 25.2 0 Calma 3 Oeste 0 -- -- 59
2018-08-06 08:00:00 21.2 0 Calma 4 Sudeste 0 -- -- 74
2018-08-06 07:00:00 20.2 0 Calma 5 Oeste 0 -- -- 74
2018-08-06 06:00:00 20.8 3 Norte 5 Norte 0 -- -- 72
2018-08-06 05:00:00 21.4 3 Oeste 8 Norte 0 -- -- 70
2018-08-06 04:00:00 21.9 3 Noroeste 9 Norte 0 -- -- 70
2018-08-06 03:00:00 22.5 2 Oeste 8 Norte 0 -- -- 68
2018-08-06 02:00:00 23.7 3 Oeste 5 Norte 0 -- -- 62
2018-08-06 01:00:00 24.6 2 Sudoeste 5 Oeste 0 -- -- 60
2018-08-06 00:00:00 25 4 Noroeste 7 Noroeste 0 -- -- 57
2018-08-05 23:00:00 26.1 3 Noroeste 9 Noroeste 0 -- -- 54
2018-08-05 22:00:00 27.8 0 Calma 9 Sur 0 -- -- 51
2018-08-05 21:00:00 29.6 6 Sur 16 Sudoeste 0 -- -- 44
2018-08-05 20:00:00 31.8 8 Sur 14 Sur 0 -- -- 40
2018-08-05 19:00:00 31.6 11 Sur 20 Sur 0 -- -- 40
2018-08-05 18:00:00 31.7 7 Sur 22 Sur 0 -- -- 42
2018-08-05 17:00:00 33.4 14 Sur 32 Sur 0 -- -- 40
2018-08-05 16:00:00 34.2 17 Sur 31 Sur 0 -- -- 36
2018-08-05 15:00:00 34.9 22 Sur 36 Sur 0 -- -- 37
2018-08-05 14:00:00 36.2 24 Sur 37 Sur 0 -- -- 34
2018-08-05 13:00:00 37 22 Sur 31 Sur 0 -- -- 31
2018-08-05 12:00:00 36.3 14 Sur 27 Sur 0 -- -- 31
2018-08-05 11:00:00 33.7 8 Sur 21 Sur 0 -- -- 36
2018-08-05 10:00:00 29.5 2 Sudeste 5 Sudeste 0 -- -- 43
2018-08-05 09:00:00 25.9 2 Sudeste 4 Sudeste 0 -- -- 49
2018-08-05 08:00:00 20.8 2 Oeste 3 Oeste 0 -- -- 66
2018-08-05 07:00:00 19.7 0 Calma 2 Nordeste 0 -- -- 66
2018-08-05 06:00:00 20.1 0 Calma 5 Norte 0 -- -- 65
2018-08-05 05:00:00 20.6 2 Sur 5 Norte 0 -- -- 64
2018-08-05 04:00:00 20.9 0 Calma 2 Sur 0 -- -- 64
2018-08-05 03:00:00 21.5 0 Calma 4 Sudoeste 0 -- -- 62
2018-08-05 02:00:00 22.1 3 Oeste 6 Sudoeste 0 -- -- 61
2018-08-05 01:00:00 22.9 2 Noroeste 8 Noroeste 0 -- -- 59
2018-08-05 00:00:00 23.9 0 Calma 6 Norte 0 -- -- 57
2018-08-04 23:00:00 25.8 4 Noroeste 8 Noroeste 0 -- -- 49
2018-08-04 22:00:00 27.7 2 Oeste 6 Sudoeste 0 -- -- 47
2018-08-04 21:00:00 30.2 5 Sudoeste 18 Sudoeste 0 -- -- 41
2018-08-04 20:00:00 32.1 12 Sur 21 Sur 0 -- -- 37
2018-08-04 19:00:00 33.1 13 Sur 24 Sur 0 -- -- 35
2018-08-04 18:00:00 34.1 14 Sur 29 Sur 0 -- -- 34
2018-08-04 17:00:00 34.9 17 Sur 29 Sur 0 -- -- 32
2018-08-04 16:00:00 36.5 17 Sur 35 Sur 0 -- -- 31
2018-08-04 15:00:00 36.7 16 Sur 31 Sudeste 0 -- -- 32
2018-08-04 14:00:00 35.9 13 Sur 28 Sudeste 0 -- -- 35
2018-08-04 13:00:00 34.8 10 Sudeste 21 Sudeste 0 -- -- 33
2018-08-04 12:00:00 34.3 12 Sudeste 19 Sudeste 0 -- -- 36
2018-08-04 11:00:00 32.5 5 Sudeste 8 Sudeste 0 -- -- 36
2018-08-04 10:00:00 28.5 3 Sur 6 Sur 0 -- -- 42
2018-08-04 09:00:00 25.4 0 Calma 4 Sudeste 0 -- -- 56
2018-08-04 08:00:00 20.9 0 Calma 5 Noroeste 0 -- -- 81
2018-08-04 07:00:00 20 0 Calma 3 Oeste 0 -- -- 82
2018-08-04 06:00:00 20.6 0 Calma 4 Oeste 0 -- -- 81
2018-08-04 05:00:00 21.1 0 Calma 3 Noroeste 0 -- -- 80
2018-08-04 04:00:00 21.8 0 Calma 4 Norte 0 -- -- 78
2018-08-04 03:00:00 22.5 0 Calma 4 Noroeste 0 -- -- 76
2018-08-04 02:00:00 23.3 0 Calma 6 Norte 0 -- -- 74
2018-08-04 01:00:00 24.2 5 Noroeste 12 Noroeste 0 -- -- 71
2018-08-04 00:00:00 25 3 Norte 9 Noroeste 0 -- -- 68
2018-08-03 23:00:00 26.1 5 Norte 8 Noroeste 0 -- -- 65
2018-08-03 22:00:00 27.8 0 Calma 10 Sur 0 -- -- 59
2018-08-03 21:00:00 29.7 7 Sur 13 Sur 0 -- -- 54
2018-08-03 20:00:00 31.4 6 Sudeste 16 Sur 0 -- -- 51
2018-08-03 19:00:00 32.3 10 Sur 21 Sur 0 -- -- 48
2018-08-03 18:00:00 34.4 12 Sudeste 26 Sur 0 -- -- 43
2018-08-03 17:00:00 34.6 14 Sudeste 32 Sudeste 0 -- -- 42
2018-08-03 16:00:00 34.5 15 Sudeste 31 Sudeste 0 -- -- 39
2018-08-03 15:00:00 35 18 Sudeste 33 Sudeste 0 -- -- 40
2018-08-03 14:00:00 35.2 16 Sudeste 34 Sudeste 0 -- -- 42
2018-08-03 13:00:00 34.5 13 Sudeste 23 Sudeste 0 -- -- 40
2018-08-03 12:00:00 34.8 12 Sudeste 22 Sudeste 0 -- -- 32
2018-08-03 11:00:00 32.6 4 Este 9 Sudeste 0 -- -- 38
2018-08-03 10:00:00 29 2 Este 5 Sudeste 0 -- -- 45
2018-08-03 09:00:00 25.1 0 Calma 3 Sudeste 0 -- -- 56
2018-08-03 08:00:00 20.5 0 Calma 5 Norte 0 -- -- 71
2018-08-03 07:00:00 19 0 Calma 3 Noroeste 0 -- -- 74
2018-08-03 06:00:00 19.5 0 Calma 9 Norte 0 -- -- 73
2018-08-03 05:00:00 19.7 0 Calma 5 Sudoeste 0 -- -- 73
2018-08-03 04:00:00 20.3 0 Calma 5 Oeste 0 -- -- 71
2018-08-03 03:00:00 21 2 Noroeste 6 Norte 0 -- -- 68
2018-08-03 02:00:00 21.8 5 Norte 6 Norte 0 -- -- 68
2018-08-03 01:00:00 22.7 3 Noroeste 5 Noroeste 0 -- -- 66
2018-08-03 00:00:00 23.8 4 Oeste 7 Noroeste 0 -- -- 62
2018-08-02 23:00:00 25.4 0 Calma 6 Noroeste 0 -- -- 58
2018-08-02 22:00:00 27.2 4 Noroeste 10 Sudoeste 0 -- -- 53
2018-08-02 21:00:00 29.5 6 Sur 13 Sudoeste 0 -- -- 46
2018-08-02 20:00:00 31.5 10 Sur 18 Sudoeste 0 -- -- 41
2018-08-02 19:00:00 33 12 Sudoeste 24 Sur 0 -- -- 38
2018-08-02 18:00:00 34.3 15 Sudoeste 25 Sudeste 0 -- -- 35
2018-08-02 17:00:00 36 12 Sur 30 Sudeste 0 -- -- 32
2018-08-02 16:00:00 35.4 19 Sudeste 31 Sur 0 -- -- 36
2018-08-02 15:00:00 36.3 16 Sudeste 31 Sudeste 0 -- -- 35
2018-08-02 14:00:00 36.1 15 Sur 25 Sudeste 0 -- -- 29
2018-08-02 13:00:00 34.9 10 Sur 19 Sudeste 0 -- -- 30
2018-08-02 12:00:00 33.6 8 Sudeste 17 Sudeste 0 -- -- 30
2018-08-02 11:00:00 30.8 3 Sudeste 8 Este 0 -- -- 34
2018-08-02 10:00:00 27.4 0 Calma 5 Sur 0 -- -- 39
2018-08-02 09:00:00 24.1 0 Calma 4 Sur 0 -- -- 48
2018-08-02 08:00:00 18.8 0 Calma 2 Oeste 0 -- -- 64
2018-08-02 07:00:00 17.3 2 Oeste 3 Oeste 0 -- -- 67
2018-08-02 06:00:00 17.7 0 Calma 4 Sudoeste 0 -- -- 65
2018-08-02 05:00:00 18 0 Calma 3 Este 0 -- -- 64
2018-08-02 04:00:00 18.6 0 Calma 2 Sudeste 0 -- -- 62
2018-08-02 03:00:00 19.2 0 Calma 3 Sudeste 0 -- -- 62
2018-08-02 02:00:00 20.1 2 Norte 4 Norte 0 -- -- 55
2018-08-02 01:00:00 21 0 Calma 3 Sudoeste 0 -- -- 57
2018-08-02 00:00:00 22.3 0 Calma 4 Noroeste 0 -- -- 54
2018-08-01 23:00:00 24 0 Calma 4 Este 0 -- -- 53
2018-08-01 22:00:00 26.1 5 Oeste 10 Noroeste 0 -- -- 47
2018-08-01 21:00:00 29.1 5 Sur 12 Sur 0 -- -- 40
2018-08-01 20:00:00 31.3 9 Sur 23 Sur 0 -- -- 37
2018-08-01 19:00:00 32.7 10 Sur 24 Sudeste 0 -- -- 39
2018-08-01 18:00:00 33 15 Sudeste 27 Este 0 -- -- 40
2018-08-01 17:00:00 33.4 15 Sudeste 27 Sudeste 0 -- -- 41
2018-08-01 16:00:00 34.1 14 Sudeste 27 Sudeste 0 -- -- 43
2018-08-01 15:00:00 34.5 13 Sudeste 28 Este 0 -- -- 41
2018-08-01 14:00:00 33.8 8 Sudeste 19 Sudeste 0 -- -- 34
2018-08-01 13:00:00 32.7 8 Sudeste 18 Sudeste 0 -- -- 37
2018-08-01 12:00:00 30.8 6 Este 14 Este 0 -- -- 47
2018-08-01 11:00:00 29.1 2 Sudeste 8 Este 0 -- -- 50
2018-08-01 10:00:00 26.7 0 Calma 6 Oeste 0 -- -- 52
2018-08-01 09:00:00 23.5 0 Calma 3 Sudeste 0 -- -- 63
2018-08-01 08:00:00 19.6 0 Calma 4 Oeste 0 -- -- 81
2018-08-01 07:00:00 18.4 3 Norte 4 Noroeste 0 -- -- 84
2018-08-01 06:00:00 18.7 0 Calma 7 Noroeste 0 -- -- 83
2018-08-01 05:00:00 19.1 2 Oeste 3 Noroeste 0 -- -- 81
2018-08-01 04:00:00 19.8 0 Calma 2 Este 0 -- -- 79
2018-08-01 03:00:00 20.5 0 Calma 3 Este 0 -- -- 79
2018-08-01 02:00:00 21.4 0 Calma 2 Norte 0 -- -- 77
2018-08-01 01:00:00 22.5 0 Calma 4 Oeste 0 -- -- 73
2018-08-01 00:00:00 23.3 2 Norte 4 Norte 0 -- -- 70
2018-07-31 23:00:00 24.5 2 Norte 6 Noroeste 0 -- -- 66
2018-07-31 22:00:00 26.4 3 Norte 15 Sudeste 0 -- -- 62
2018-07-31 21:00:00 28.4 4 Sudeste 18 Sudeste 0 -- -- 53
2018-07-31 20:00:00 30.5 11 Sudeste 19 Sudeste 0 -- -- 52
2018-07-31 19:00:00 32.2 10 Sudeste 19 Sudeste 0 -- -- 44
2018-07-31 18:00:00 32.5 11 Sudeste 23 Sudeste 0 -- -- 41
2018-07-31 17:00:00 34 12 Sudeste 31 Sudeste 0 -- -- 38
2018-07-31 16:00:00 34.1 15 Sudeste 29 Sudeste 0 -- -- 39
2018-07-31 15:00:00 33.8 13 Sudeste 27 Este 0 -- -- 45
2018-07-31 14:00:00 33.1 10 Sudeste 22 Sudeste 0 -- -- 44
2018-07-31 13:00:00 31.5 7 Sudeste 17 Este 0 -- -- 48
2018-07-31 12:00:00 30.1 6 Sur 16 Sudeste 0 -- -- 53
2018-07-31 11:00:00 28.2 7 Sur 12 Sudeste 0 -- -- 63
2018-07-31 10:00:00 26.3 4 Sur 10 Sur 0 -- -- 65
2018-07-31 09:00:00 23.2 0 Calma 4 Norte 0 -- -- 69
2018-07-31 08:00:00 19.2 2 Norte 4 Sudoeste 0 -- -- 87
2018-07-31 07:00:00 17.9 0 Calma 6 Norte 0 -- -- 88
2018-07-31 06:00:00 18.5 0 Calma 3 Norte 0 -- -- 88
2018-07-31 05:00:00 19.1 0 Calma 3 Norte 0 -- -- 86
2018-07-31 04:00:00 19.7 0 Calma 4 Norte 0 -- -- 84
2018-07-31 03:00:00 20.5 2 Oeste 3 Oeste 0 -- -- 84
2018-07-31 02:00:00 21.1 0 Calma 4 Nordeste 0 -- -- 83
2018-07-31 01:00:00 22 4 Noroeste 7 Noroeste 0 -- -- 81
2018-07-31 00:00:00 23 7 Noroeste 9 Norte 0 -- -- 77
2018-07-30 23:00:00 24.2 4 Noroeste 6 Noroeste 0 -- -- 73
2018-07-30 22:00:00 25.8 3 Sudoeste 5 Este 0 -- -- 69
2018-07-30 21:00:00 27.2 4 Sudeste 16 Sur 0 -- -- 65
2018-07-30 20:00:00 28.9 11 Sudeste 20 Sudeste 0 -- -- 60
2018-07-30 19:00:00 29.9 11 Sudeste 22 Este 0 -- -- 57
2018-07-30 18:00:00 31.1 13 Sudeste 26 Sudeste 0 -- -- 53
2018-07-30 17:00:00 32.2 16 Sudeste 29 Sudeste 0 -- -- 50
2018-07-30 16:00:00 33.4 17 Sudeste 32 Sudeste 0 -- -- 46
2018-07-30 15:00:00 33.2 14 Sudeste 27 Sur 0 -- -- 46
2018-07-30 14:00:00 32.6 6 Sudeste 23 Sudeste 0 -- -- 44
2018-07-30 13:00:00 31.2 8 Sudeste 17 Sur 0 -- -- 51
2018-07-30 12:00:00 29.2 5 Noroeste 13 Sudeste 0 -- -- 58
2018-07-30 11:00:00 27.8 5 Sudoeste 11 Sudeste 0 -- -- 61
2018-07-30 10:00:00 25.4 2 Nordeste 7 Sudeste 0 -- -- 70
2018-07-30 09:00:00 23.3 2 Sur 6 Sudeste 0 -- -- 75
2018-07-30 08:00:00 19.8 0 Calma 5 Noroeste 0 -- -- 88
2018-07-30 07:00:00 18.6 3 Oeste 6 Este 0 -- -- 89
2018-07-30 06:00:00 19.2 2 Noroeste 5 Oeste 0 -- -- 88
2018-07-30 05:00:00 19.8 0 Calma 3 Sudoeste 0 -- -- 87
2018-07-30 04:00:00 20.3 0 Calma 2 Sur 0 -- -- 86
2018-07-30 03:00:00 21 0 Calma 4 Oeste 0 -- -- 84
2018-07-30 02:00:00 21.7 3 Sudoeste 5 Norte 0 -- -- 83
2018-07-30 01:00:00 22.6 2 Nordeste 4 Norte 0 -- -- 81
2018-07-30 00:00:00 23.5 0 Calma 8 Noroeste 0 -- -- 77
2018-07-29 23:00:00 24.6 5 Norte 9 Norte 0 -- -- 74
2018-07-29 22:00:00 26.4 0 Calma 6 Sur 0 -- -- 69
2018-07-29 21:00:00 27.6 5 Sudeste 20 Sudeste 0 -- -- 64
2018-07-29 20:00:00 29.4 11 Sudeste 23 Sudeste 0 -- -- 58
2018-07-29 19:00:00 31.3 11 Sudeste 23 Sudeste 0 -- -- 55
2018-07-29 18:00:00 32.4 9 Sudeste 23 Sudeste 0 -- -- 53
2018-07-29 17:00:00 32.7 15 Sudeste 26 Sudeste 0 -- -- 53
2018-07-29 16:00:00 32.7 14 Sudeste 29 Sudeste 0 -- -- 54
2018-07-29 15:00:00 32.8 12 Sudeste 33 Sudeste 0 -- -- 53
2018-07-29 14:00:00 32.6 13 Sudeste 26 Sur 0 -- -- 51
2018-07-29 13:00:00 30.8 8 Sudeste 16 Sur 0 -- -- 51
2018-07-29 12:00:00 29.2 5 Sudeste 14 Este 0 -- -- 54
2018-07-29 11:00:00 26.9 4 Nordeste 8 Sur 0 -- -- 64
2018-07-29 10:00:00 25 3 Sudeste 6 Sudeste 0 -- -- 69
2018-07-29 09:00:00 21.8 2 Este 5 Este 0 -- -- 71
2018-07-29 08:00:00 18.9 2 Sur 4 Sudoeste 0 -- -- 82
2018-07-29 07:00:00 17.2 0 Calma 3 Norte 0 -- -- 88
2018-07-29 06:00:00 17.4 0 Calma 3 Oeste 0 -- -- 85
2018-07-29 05:00:00 17.9 0 Calma 5 Norte 0 -- -- 82
2018-07-29 04:00:00 18.5 0 Calma 5 Noroeste 0 -- -- 82
2018-07-29 03:00:00 19.3 4 Norte 7 Noroeste 0 -- -- 79
2018-07-29 02:00:00 20 3 Este 9 Oeste 0 -- -- 76
2018-07-29 01:00:00 20.5 6 Noroeste 8 Noroeste 0 -- -- 72
2018-07-29 00:00:00 21.8 3 Oeste 9 Noroeste 0 -- -- 69
2018-07-28 23:00:00 23.6 3 Nordeste 12 Noroeste 0 -- -- 63
2018-07-28 22:00:00 25.2 7 Noroeste 8 Noroeste 0 -- -- 58
2018-07-28 21:00:00 27.6 6 Sur 13 Sur 0 -- -- 50
2018-07-28 20:00:00 29.4 9 Sur 27 Sudeste 0 -- -- 45
2018-07-28 19:00:00 30.5 19 Sudeste 28 Sudeste 0 -- -- 44
2018-07-28 18:00:00 31.6 16 Sudeste 27 Sudeste 0 -- -- 46
2018-07-28 17:00:00 32.3 14 Sudeste 27 Sur 0 -- -- 44
2018-07-28 16:00:00 33.2 12 Sudeste 29 Sudeste 0 -- -- 44
2018-07-28 15:00:00 33.9 15 Sudeste 31 Sudeste 0 -- -- 46
2018-07-28 14:00:00 33.7 10 Sur 20 Sur 0 -- -- 46
2018-07-28 13:00:00 31.4 10 Sudeste 19 Sudeste 0 -- -- 46
2018-07-28 12:00:00 30.4 5 Sudeste 13 Sudeste 0 -- -- 41
2018-07-28 11:00:00 28.4 4 Sudeste 9 Este 0 -- -- 52
2018-07-28 10:00:00 25.1 4 Nordeste 6 Este 0 -- -- 59
2018-07-28 09:00:00 21.4 2 Este 5 Sudeste 0 -- -- 64
2018-07-28 08:00:00 16.6 3 Sudoeste 4 Sur 0 -- -- 83
2018-07-28 07:00:00 16.2 0 Calma 4 Norte 0 -- -- 76
2018-07-28 06:00:00 16.6 2 Sudoeste 4 Este 0 -- -- 80
2018-07-28 05:00:00 17.6 0 Calma 4 Norte 0 -- -- 76
2018-07-28 04:00:00 18.5 2 Oeste 4 Oeste 0 -- -- 74
2018-07-28 03:00:00 19.1 0 Calma 6 Norte 0 -- -- 73
2018-07-28 02:00:00 19.7 4 Noroeste 5 Noroeste 0 -- -- 73
2018-07-28 01:00:00 20.6 3 Noroeste 7 Norte 0 -- -- 66
2018-07-28 00:00:00 21.8 0 Calma 4 Sudoeste 0 -- -- 69
2018-07-27 23:00:00 23 3 Sur 10 Noroeste 0 -- -- 65
2018-07-27 22:00:00 24.3 6 Norte 10 Norte 0 -- -- 59
2018-07-27 21:00:00 26.3 5 Sudeste 19 Sur 0 -- -- 54
2018-07-27 20:00:00 28.1 12 Sur 24 Sur 0 -- -- 52
2018-07-27 19:00:00 30.2 17 Sur 24 Sur 0 -- -- 54
2018-07-27 18:00:00 32.2 14 Sur 24 Sur 0 -- -- 47
2018-07-27 17:00:00 33.8 14 Sudoeste 26 Sur 0 -- -- 34
2018-07-27 16:00:00 34.7 14 Sur 27 Sur 0 -- -- 26
2018-07-27 15:00:00 33.8 15 Sudeste 29 Este 0 -- -- 37
2018-07-27 14:00:00 34.2 14 Sur 27 Sur 0 -- -- 29
2018-07-27 13:00:00 32.7 10 Sudeste 19 Sudeste 0 -- -- 38
2018-07-27 12:00:00 30.2 6 Sudeste 22 Sudeste 0 -- -- 49
2018-07-27 11:00:00 28 4 Sur 8 Sur 0 -- -- 54
2018-07-27 10:00:00 24.8 2 Este 6 Sudeste 0 -- -- 64
2018-07-27 09:00:00 21.9 2 Sudeste 5 Este 0 -- -- 68
2018-07-27 08:00:00 18.4 0 Calma 3 Sudeste 0 -- -- 80
2018-07-27 07:00:00 16.9 0 Calma 4 Oeste 0 -- -- 85
2018-07-27 06:00:00 17.6 0 Calma 4 Norte 0 -- -- 85
2018-07-27 05:00:00 18.3 0 Calma 4 Oeste 0 -- -- 85
2018-07-27 04:00:00 18.9 0 Calma 4 Oeste 0 -- -- 84
2018-07-27 03:00:00 19.6 4 Oeste 5 Oeste 0 -- -- 85
2018-07-27 02:00:00 20.8 0 Calma 3 Norte 0 -- -- 83
2018-07-27 01:00:00 21.4 0 Calma 9 Noroeste 0 -- -- 80
2018-07-27 00:00:00 22.3 6 Norte 9 Noroeste 0 -- -- 78
2018-07-26 23:00:00 23.3 6 Norte 9 Sudoeste 0 -- -- 74
2018-07-26 22:00:00 24.7 4 Sudoeste 12 Sur 0 -- -- 71
2018-07-26 21:00:00 26.7 7 Sur 15 Sur 0 -- -- 61
2018-07-26 20:00:00 28.8 9 Sur 19 Sudoeste 0 -- -- 53
2018-07-26 19:00:00 30.5 11 Sur 23 Sur 0 -- -- 49
2018-07-26 18:00:00 32.2 11 Sur 21 Sudeste 0 -- -- 46
2018-07-26 17:00:00 33.1 12 Sur 25 Sudeste 0 -- -- 45
2018-07-26 16:00:00 32.9 14 Sudeste 29 Sudeste 0 -- -- 45
2018-07-26 15:00:00 33.8 16 Sudeste 25 Sur 0 -- -- 45
2018-07-26 14:00:00 33.5 13 Sur 20 Sudeste 0 -- -- 38
2018-07-26 13:00:00 31.9 12 Sudeste 19 Sudeste 0 -- -- 41
2018-07-26 12:00:00 29.4 7 Este 17 Este 0 -- -- 55
2018-07-26 11:00:00 27.7 5 Este 10 Este 0 -- -- 60
2018-07-26 10:00:00 25.5 2 Este 6 Sudeste 0 -- -- 67
2018-07-26 09:00:00 22.7 0 Calma 7 Este 0 -- -- 71
2018-07-26 08:00:00 21.4 4 Nordeste 6 Sudeste 0 -- -- 81
2018-07-26 07:00:00 21.5 2 Nordeste 4 Norte 0 -- -- 83
2018-07-26 06:00:00 21.9 2 Este 6 Oeste 0 -- -- 86
2018-07-26 05:00:00 22.3 4 Oeste 7 Oeste 0 -- -- 88
2018-07-26 04:00:00 23 3 Noroeste 6 Noroeste 0 -- -- 87
2018-07-26 03:00:00 23.1 0 Calma 5 Sur 0 -- -- 88
2018-07-26 02:00:00 23 2 Sudoeste 5 Oeste 0 -- -- 89
2018-07-26 01:00:00 23 2 Oeste 6 Sudoeste 0 -- -- 88
2018-07-26 00:00:00 23.3 4 Oeste 8 Sudeste 0 -- -- 87
2018-07-25 23:00:00 23.6 5 Sudeste 13 Sudeste 0 -- -- 85
2018-07-25 22:00:00 24.4 6 Sudoeste 11 Sudoeste 0 -- -- 82
2018-07-25 21:00:00 25.2 8 Sur 20 Sudeste 0 -- -- 80
2018-07-25 20:00:00 26.6 13 Sudeste 24 Sudeste 0 -- -- 73
2018-07-25 19:00:00 29.2 17 Sur 25 Sudeste 0 -- -- 64
2018-07-25 18:00:00 30.5 12 Sudeste 24 Sudeste 0 -- -- 60
2018-07-25 17:00:00 31.6 12 Sur 27 Sur 0 -- -- 56
2018-07-25 16:00:00 31.6 9 Sudeste 18 Sudeste 0 -- -- 55
2018-07-25 15:00:00 30.3 9 Sudeste 25 Sudeste 0 -- -- 59
2018-07-25 14:00:00 29.6 12 Sudeste 26 Sudeste 0 -- -- 63
2018-07-25 13:00:00 28.7 15 Sudeste 23 Sudeste 0 -- -- 63
2018-07-25 12:00:00 27.7 8 Sur 17 Sudeste 0 -- -- 66
2018-07-25 11:00:00 27.7 6 Sudeste 15 Sudeste 0 -- -- 66
2018-07-25 10:00:00 25.6 3 Este 9 Este 0 -- -- 72
2018-07-25 09:00:00 22.8 2 Sur 5 Sudeste 0 -- -- 77
2018-07-25 08:00:00 20 0 Calma 4 Sudeste 0 -- -- 92
2018-07-25 07:00:00 18.6 0 Calma 7 Oeste 0 -- -- 93
2018-07-25 06:00:00 19 0 Calma 4 Nordeste 0 -- -- 92
2018-07-25 05:00:00 19.6 5 Sudoeste 8 Noroeste 0 -- -- 92
2018-07-25 04:00:00 20.6 3 Norte 8 Noroeste 0 -- -- 90
2018-07-25 03:00:00 21.4 0 Calma 6 Noroeste 0 -- -- 89
2018-07-25 02:00:00 22.2 3 Norte 6 Oeste 0 -- -- 89
2018-07-25 01:00:00 22 5 Oeste 7 Oeste 0 -- -- 91
2018-07-25 00:00:00 22.7 5 Oeste 15 Sudeste 0 -- -- 87
2018-07-24 23:00:00 24.2 2 Oeste 10 Oeste 0 -- -- 76
2018-07-24 22:00:00 25.3 5 Sudoeste 14 Sudeste 0 -- -- 72
2018-07-24 21:00:00 27.3 2 Sudeste 15 Este 0 -- -- 64
2018-07-24 20:00:00 28.8 11 Sudeste 21 Sudeste 0 -- -- 61
2018-07-24 19:00:00 30.3 10 Sudeste 20 Sudeste 0 -- -- 60
2018-07-24 18:00:00 31.2 12 Sudeste 22 Sudeste 0 -- -- 58
2018-07-24 17:00:00 31.4 12 Sudeste 23 Este 0 -- -- 57
2018-07-24 16:00:00 32 14 Sudeste 27 Sur 0 -- -- 56
2018-07-24 15:00:00 31.9 12 Sudeste 25 Sudeste 0 -- -- 57
2018-07-24 14:00:00 31.4 11 Sudeste 27 Sudeste 0 -- -- 58
2018-07-24 13:00:00 30.3 8 Sudeste 18 Sudeste 0 -- -- 54
2018-07-24 12:00:00 28.2 6 Este 14 Este 0 -- -- 58
2018-07-24 11:00:00 26.4 3 Este 8 Sudeste 0 -- -- 65
2018-07-24 10:00:00 24.6 3 Sudeste 6 Sur 0 -- -- 71
2018-07-24 09:00:00 21.6 3 Sudeste 5 Sur 0 -- -- 80
2018-07-24 08:00:00 18.6 0 Calma 0 Calma 0 -- -- 93
2018-07-24 07:00:00 17.2 0 Calma 3 Sudoeste 0 -- -- 92
2018-07-24 06:00:00 17.5 0 Calma 2 Sudoeste 0 -- -- 92
2018-07-24 05:00:00 18 0 Calma 4 Noroeste 0 -- -- 92
2018-07-24 04:00:00 18.5 0 Calma 2 Norte 0 -- -- 91
2018-07-24 03:00:00 19.1 0 Calma 5 Noroeste 0 -- -- 90
2018-07-24 02:00:00 19.8 0 Calma 4 Oeste 0 -- -- 89
2018-07-24 01:00:00 20.5 0 Calma 4 Sudoeste 0 -- -- 87
2018-07-24 00:00:00 21.1 3 Noroeste 4 Norte 0 -- -- 85
2018-07-23 23:00:00 22.1 2 Norte 8 Noroeste 0 -- -- 80
2018-07-23 22:00:00 23.2 3 Oeste 14 Sur 0 -- -- 77
2018-07-23 21:00:00 24.7 9 Sudoeste 18 Sur 0 -- -- 69
2018-07-23 20:00:00 26.6 13 Sur 22 Sur 0 -- -- 62
2018-07-23 19:00:00 28.2 14 Sur 26 Sur 0 -- -- 58
2018-07-23 18:00:00 29.1 16 Sur 25 Sur 0 -- -- 58
2018-07-23 17:00:00 29.7 14 Sur 27 Sur 0 -- -- 59
2018-07-23 16:00:00 29 18 Sur 29 Sur 0 -- -- 63
2018-07-23 15:00:00 30.4 19 Sur 29 Sudeste 0 -- -- 59
2018-07-23 14:00:00 30.3 17 Sur 28 Sur 0 -- -- 55
2018-07-23 13:00:00 30.4 15 Sur 26 Sur 0 -- -- 52
2018-07-23 12:00:00 28.6 9 Sudeste 19 Sudeste 0 -- -- 54
2018-07-23 11:00:00 27 3 Este 9 Sudeste 0 -- -- 56
2018-07-23 10:00:00 24.3 0 Calma 5 Sur 0 -- -- 65
2018-07-23 09:00:00 20.7 0 Calma 4 Sudoeste 0 -- -- 78
2018-07-23 08:00:00 17.6 0 Calma 2 Oeste 0 -- -- 94
2018-07-23 07:00:00 16 0 Calma 5 Norte 0 -- -- 95
2018-07-23 06:00:00 16.2 0 Calma 3 Noroeste 0 -- -- 95
2018-07-23 05:00:00 16.5 0 Calma 4 Sur 0 -- -- 94
2018-07-23 04:00:00 16.6 3 Oeste 5 Oeste 0 -- -- 94
2018-07-23 03:00:00 17.1 0 Calma 4 Noroeste 0 -- -- 93
2018-07-23 02:00:00 17.5 2 Noroeste 5 Norte 0 -- -- 92
2018-07-23 01:00:00 18 2 Nordeste 4 Noroeste 0 -- -- 91
2018-07-23 00:00:00 18.6 4 Oeste 7 Noroeste 0 -- -- 88
2018-07-22 23:00:00 19.7 5 Noroeste 10 Norte 0 -- -- 84
2018-07-22 22:00:00 21.1 7 Norte 9 Norte 0 -- -- 80
2018-07-22 21:00:00 23.1 5 Este 9 Este 0 -- -- 66
2018-07-22 20:00:00 24.4 6 Sudeste 19 Sudeste 0 -- -- 64
2018-07-22 19:00:00 24.5 11 Sur 31 Sudoeste 0 -- -- 63
2018-07-22 18:00:00 24.4 15 Sur 24 Sudoeste 0 -- -- 63
2018-07-22 17:00:00 20.7 6 Este 12 Norte 0 -- -- 80
2018-07-22 16:00:00 20.5 0 Calma 8 Sudeste 0 -- -- 79
2018-07-22 15:00:00 18.8 3 Sudeste 18 Sudoeste 3 -- -- 88
2018-07-22 14:00:00 19.3 5 Sur 23 Sur 0.2 -- -- 84
2018-07-22 13:00:00 20.9 3 Sudeste 19 Nordeste 0 -- -- 75
2018-07-22 12:00:00 20.8 4 Este 9 Nordeste 0 -- -- 74
2018-07-22 11:00:00 18.9 5 Sudoeste 12 Sudoeste 0 -- -- 90
2018-07-22 10:00:00 17.4 5 Nordeste 8 Norte 0 -- -- 94
2018-07-22 09:00:00 16.6 0 Calma 6 Oeste 0 -- -- 97
2018-07-22 08:00:00 15.3 4 Sudeste 55 Noroeste 16.2 -- -- 96
2018-07-22 07:00:00 17.5 13 Norte 27 Oeste 0.2 -- -- 91
2018-07-22 06:00:00 17.2 5 Nordeste 35 Noroeste 2.8 -- -- 91
2018-07-22 05:00:00 18.1 6 Este 14 Nordeste 0.2 -- -- 89
2018-07-22 04:00:00 18.4 4 Sudeste 15 Nordeste 0 -- -- 94
2018-07-22 03:00:00 18.8 10 Nordeste 38 Sudoeste 5.2 -- -- 87
2018-07-22 02:00:00 19.9 0 Calma 7 Norte 0 -- -- 94
2018-07-22 01:00:00 20.2 0 Calma 4 Oeste 0.4 -- -- 94
2018-07-22 00:00:00 20.4 3 Sudeste 6 Norte 0 -- -- 94
2018-07-21 23:00:00 20.4 0 Calma 9 Oeste 2.4 -- -- 92
2018-07-21 22:00:00 20.6 5 Noroeste 10 Noroeste 8.8 -- -- 91
2018-07-21 21:00:00 21.5 3 Nordeste 18 Norte 1.2 -- -- 87
2018-07-21 20:00:00 22.7 6 Nordeste 20 Sudeste 0 -- -- 76
2018-07-21 19:00:00 25.2 13 Sudeste 25 Sudeste 0 -- -- 64
2018-07-21 18:00:00 26.6 12 Sudeste 30 Este 0 -- -- 58
2018-07-21 17:00:00 27.4 13 Sudeste 30 Sudeste 0 -- -- 55
2018-07-21 16:00:00 26.9 19 Sudeste 32 Sudeste 0 -- -- 56
2018-07-21 15:00:00 27.4 15 Sudeste 29 Sudeste 0 -- -- 53
2018-07-21 14:00:00 28.4 15 Sudeste 33 Sudeste 0 -- -- 44
2018-07-21 13:00:00 30.3 17 Sudeste 28 Sudeste 0 -- -- 38
2018-07-21 12:00:00 29.4 9 Sudeste 21 Sur 0 -- -- 37
2018-07-21 11:00:00 26.1 4 Norte 13 Este 0 -- -- 42
2018-07-21 10:00:00 25.4 3 Nordeste 13 Este 0 -- -- 44
2018-07-21 09:00:00 23 6 Nordeste 18 Nordeste 0 -- -- 52
2018-07-21 08:00:00 21.1 4 Nordeste 15 Nordeste 0 -- -- 57
2018-07-21 07:00:00 19.8 5 Este 14 Este 0 -- -- 60
2018-07-21 06:00:00 19.9 6 Nordeste 15 Nordeste 0 -- -- 60
2018-07-21 05:00:00 20.4 4 Este 21 Nordeste 0 -- -- 58
2018-07-21 04:00:00 20.9 10 Nordeste 19 Norte 0 -- -- 55
2018-07-21 03:00:00 21.5 8 Nordeste 19 Norte 0 -- -- 53
2018-07-21 02:00:00 22.5 7 Nordeste 20 Nordeste 0 -- -- 48
2018-07-21 01:00:00 23 10 Este 27 Norte 0 -- -- 48
2018-07-21 00:00:00 23.4 12 Norte 35 Norte 0 -- -- 52
2018-07-20 23:00:00 24.5 6 Nordeste 29 Nordeste 0 -- -- 56
2018-07-20 22:00:00 25.5 5 Noroeste 12 Sudeste 0 -- -- 69
2018-07-20 21:00:00 26.1 8 Sur 19 Sudeste 0 -- -- 67
2018-07-20 20:00:00 27.5 10 Sudeste 26 Sudeste 0 -- -- 61
2018-07-20 19:00:00 28.8 16 Sudeste 29 Sudeste 0 -- -- 57
2018-07-20 18:00:00 29.6 9 Sudeste 25 Sudeste 0 -- -- 56
2018-07-20 17:00:00 30.4 13 Sur 28 Este 0 -- -- 54
2018-07-20 16:00:00 30.3 18 Sudeste 33 Sudeste 0 -- -- 54
2018-07-20 15:00:00 31.8 21 Sudeste 37 Sudeste 0 -- -- 50
2018-07-20 14:00:00 31.7 11 Sudeste 24 Sur 0 -- -- 42
2018-07-20 13:00:00 30.6 7 Sudeste 18 Sur 0 -- -- 45
2018-07-20 12:00:00 28.8 7 Sudoeste 15 Sudeste 0 -- -- 49
2018-07-20 11:00:00 27.3 6 Sur 18 Sudeste 0 -- -- 56
2018-07-20 10:00:00 25 3 Sudeste 6 Este 0 -- -- 61
2018-07-20 09:00:00 21.4 2 Sur 5 Sur 0 -- -- 69
2018-07-20 08:00:00 18 0 Calma 6 Noroeste 0 -- -- 81
2018-07-20 07:00:00 16.1 2 Sudeste 4 Oeste 0 -- -- 86
2018-07-20 06:00:00 16.6 0 Calma 2 Sudoeste 0 -- -- 85
2018-07-20 05:00:00 17.1 0 Calma 2 Sur 0 -- -- 83
2018-07-20 04:00:00 17.6 0 Calma 4 Norte 0 -- -- 82
2018-07-20 03:00:00 18.6 2 Norte 4 Norte 0 -- -- 80
2018-07-20 02:00:00 19.4 4 Norte 6 Norte 0 -- -- 78
2018-07-20 01:00:00 20.5 2 Noroeste 4 Noroeste 0 -- -- 74
2018-07-20 00:00:00 21.7 0 Calma 6 Norte 0 -- -- 72